Time;durP1;ratioP1;P1;durP2;ratioP2;P2;SDS_P1;SDS_P2;PMS_P1;PMS_P2;Temp;Humidity;BMP_temperature;BMP_pressure;BME280_temperature;BME280_humidity;BME280_pressure;Samples;Min_cycle;Max_cycle;Signal;HPM_P1;HPM_P2
2023/05/22 00:02:04;;;;;;;15.80;10.05;;;;;;;;;;4978173;28;20039;-79
2023/05/22 00:04:30;;;;;;;15.18;9.57;;;;;;;;;;4979665;28;20031;-80
2023/05/22 00:06:56;;;;;;;12.85;9.57;;;;;;;;;;4980926;28;20498;-79
2023/05/22 00:09:25;;;;;;;17.48;10.60;;;;;;;;;;4995847;28;20030;-79
2023/05/22 00:11:50;;;;;;;17.77;9.80;;;;;;;;;;4995895;28;20067;-80
2023/05/22 00:14:16;;;;;;;19.38;10.43;;;;;;;;;;4980392;28;20046;-80
2023/05/22 00:16:41;;;;;;;17.33;11.10;;;;;;;;;;4989982;28;20046;-79
2023/05/22 00:19:11;;;;;;;16.85;10.68;;;;;;;;;;4980383;28;20031;-79
2023/05/22 00:21:37;;;;;;;16.20;10.63;;;;;;;;;;4980275;28;20030;-78
2023/05/22 00:24:03;;;;;;;20.45;11.45;;;;;;;;;;4979661;28;20042;-80
2023/05/22 00:26:28;;;;;;;21.65;11.70;;;;;;;;;;4979337;28;20030;-79
2023/05/22 00:28:54;;;;;;;21.42;11.40;;;;;;;;;;4980592;28;20030;-77
2023/05/22 00:31:19;;;;;;;22.67;11.38;;;;;;;;;;4979202;28;20035;-80
2023/05/22 00:33:44;;;;;;;24.33;12.50;;;;;;;;;;4979689;28;20086;-79
2023/05/22 00:36:10;;;;;;;18.55;11.85;;;;;;;;;;4979952;28;20089;-79
2023/05/22 00:38:36;;;;;;;14.68;10.80;;;;;;;;;;4979084;28;20121;-80
2023/05/22 00:41:03;;;;;;;14.45;10.30;;;;;;;;;;4978887;28;20122;-80
2023/05/22 00:43:29;;;;;;;18.33;10.63;;;;;;;;;;4979265;28;20026;-80
2023/05/22 00:45:54;;;;;;;16.83;11.40;;;;;;;;;;4980295;28;20042;-78
2023/05/22 00:48:20;;;;;;;21.02;12.70;;;;;;;;;;4978950;28;20027;-79
2023/05/22 00:50:46;;;;;;;19.95;13.07;;;;;;;;;;4980525;28;20034;-79
2023/05/22 00:53:13;;;;;;;17.10;11.90;;;;;;;;;;4978465;28;20034;-79
2023/05/22 00:55:39;;;;;;;18.88;12.15;;;;;;;;;;4979664;28;20114;-78
2023/05/22 00:58:08;;;;;;;24.27;12.07;;;;;;;;;;4978520;28;20057;-80
2023/05/22 01:00:38;;;;;;;18.77;12.20;;;;;;;;;;4977933;28;20053;-78
2023/05/22 01:03:06;;;;;;;18.38;11.93;;;;;;;;;;4976302;28;20034;-80
2023/05/22 01:05:32;;;;;;;16.77;11.90;;;;;;;;;;4976974;28;20089;-79
2023/05/22 01:07:57;;;;;;;20.70;12.35;;;;;;;;;;4978302;28;20030;-80
2023/05/22 01:10:23;;;;;;;16.75;11.52;;;;;;;;;;4978047;28;20109;-80
2023/05/22 01:12:57;;;;;;;17.63;10.73;;;;;;;;;;4976829;28;20133;-80
2023/05/22 01:15:41;;;;;;;17.15;11.07;;;;;;;;;;4977750;28;20043;-80
2023/05/22 01:18:23;;;;;;;15.55;10.30;;;;;;;;;;4959880;28;20113;-80
2023/05/22 01:20:58;;;;;;;18.33;10.70;;;;;;;;;;4976869;28;20108;-79
2023/05/22 01:23:32;;;;;;;17.15;10.13;;;;;;;;;;4970606;28;20082;-80
2023/05/22 01:26:25;;;;;;;15.40;10.15;;;;;;;;;;4975511;28;20130;-80
2023/05/22 01:29:06;;;;;;;13.98;10.07;;;;;;;;;;4974927;28;20035;-79
2023/05/22 01:31:37;;;;;;;14.80;8.98;;;;;;;;;;4973437;28;20063;-81
2023/05/22 01:34:04;;;;;;;15.60;10.40;;;;;;;;;;4977004;28;20514;-80
2023/05/22 01:36:36;;;;;;;13.80;9.15;;;;;;;;;;4977762;28;20035;-81
2023/05/22 01:39:05;;;;;;;15.00;9.57;;;;;;;;;;4978385;28;20114;-81
2023/05/22 01:41:31;;;;;;;15.70;9.93;;;;;;;;;;4993498;28;20043;-81
2023/05/22 01:43:57;;;;;;;15.50;10.15;;;;;;;;;;4978170;28;20423;-81
2023/05/22 01:46:27;;;;;;;9.70;8.05;;;;;;;;;;4977055;28;20045;-81
2023/05/22 01:48:52;;;;;;;10.38;7.88;;;;;;;;;;4976744;28;20093;-82
2023/05/22 01:51:26;;;;;;;17.75;9.02;;;;;;;;;;4975844;28;20022;-79
2023/05/22 01:54:09;;;;;;;14.32;8.80;;;;;;;;;;4975852;28;20031;-81
2023/05/22 01:56:50;;;;;;;14.43;9.02;;;;;;;;;;4975809;28;20042;-82
2023/05/22 01:59:33;;;;;;;13.43;9.23;;;;;;;;;;4969711;28;20035;-79
2023/05/22 02:02:04;;;;;;;12.77;9.00;;;;;;;;;;4976621;28;20034;-81
2023/05/22 02:04:31;;;;;;;13.98;8.77;;;;;;;;;;4982505;28;20046;-80
2023/05/22 02:06:59;;;;;;;12.80;9.40;;;;;;;;;;4977546;28;20030;-80
2023/05/22 02:09:29;;;;;;;13.25;9.65;;;;;;;;;;4976527;28;20030;-80
2023/05/22 02:11:56;;;;;;;15.88;10.15;;;;;;;;;;4978125;28;20081;-80
2023/05/22 02:14:21;;;;;;;19.25;9.68;;;;;;;;;;4975654;28;20447;-80
2023/05/22 02:16:47;;;;;;;13.82;9.70;;;;;;;;;;4975998;28;20081;-80
2023/05/22 02:19:14;;;;;;;12.93;9.23;;;;;;;;;;4972578;28;20050;-80
2023/05/22 02:21:39;;;;;;;12.70;9.15;;;;;;;;;;4975392;28;20042;-79
2023/05/22 02:24:05;;;;;;;10.50;8.40;;;;;;;;;;4983092;28;20019;-80
2023/05/22 02:26:30;;;;;;;11.90;8.80;;;;;;;;;;4975770;28;20065;-80
2023/05/22 02:28:55;;;;;;;14.43;9.73;;;;;;;;;;4975854;28;20031;-80
2023/05/22 02:31:21;;;;;;;16.00;10.25;;;;;;;;;;4977195;28;20077;-80
2023/05/22 02:33:47;;;;;;;15.15;10.38;;;;;;;;;;4976123;28;20035;-79
2023/05/22 02:36:13;;;;;;;19.75;10.82;;;;;;;;;;4975004;28;20643;-80
2023/05/22 02:38:38;;;;;;;15.85;10.73;;;;;;;;;;4976107;28;20023;-80
2023/05/22 02:41:04;;;;;;;19.23;11.00;;;;;;;;;;4975234;28;20097;-80
2023/05/22 02:43:29;;;;;;;18.08;10.98;;;;;;;;;;4974893;28;20062;-81
2023/05/22 02:45:55;;;;;;;19.23;11.88;;;;;;;;;;4975539;28;20041;-80
2023/05/22 02:48:20;;;;;;;16.38;11.18;;;;;;;;;;4977840;28;20025;-80
2023/05/22 02:50:47;;;;;;;18.40;11.35;;;;;;;;;;4975459;28;20026;-79
2023/05/22 02:53:14;;;;;;;15.65;11.10;;;;;;;;;;4976355;28;20041;-80
2023/05/22 02:55:42;;;;;;;22.55;11.40;;;;;;;;;;4975272;28;20034;-79
2023/05/22 02:58:10;;;;;;;18.80;11.82;;;;;;;;;;4976016;28;20038;-79
2023/05/22 03:00:38;;;;;;;25.88;12.23;;;;;;;;;;4976922;28;20031;-80
2023/05/22 03:03:04;;;;;;;16.88;11.35;;;;;;;;;;4975185;28;20121;-80
2023/05/22 03:05:30;;;;;;;17.67;11.55;;;;;;;;;;4975201;28;20027;-80
2023/05/22 03:07:56;;;;;;;17.80;12.10;;;;;;;;;;4977678;28;20062;-80
2023/05/22 03:10:21;;;;;;;20.40;12.98;;;;;;;;;;4975985;28;20041;-80
2023/05/22 03:12:47;;;;;;;24.27;13.13;;;;;;;;;;4979191;28;20035;-78
2023/05/22 03:15:12;;;;;;;27.10;15.70;;;;;;;;;;4984336;28;20029;-79
2023/05/22 03:17:37;;;;;;;25.95;15.25;;;;;;;;;;4983880;28;20473;-79
2023/05/22 03:20:04;;;;;;;27.83;16.25;;;;;;;;;;4984644;28;20398;-79
2023/05/22 03:22:29;;;;;;;25.63;15.07;;;;;;;;;;4984208;28;20054;-79
2023/05/22 03:24:54;;;;;;;25.23;15.52;;;;;;;;;;4987282;28;20046;-79
2023/05/22 03:27:20;;;;;;;22.02;14.43;;;;;;;;;;4984732;28;20493;-79
2023/05/22 03:29:45;;;;;;;21.73;13.38;;;;;;;;;;4986700;28;20046;-79
2023/05/22 03:32:10;;;;;;;23.05;13.57;;;;;;;;;;4980869;28;20034;-80
2023/05/22 03:34:36;;;;;;;23.05;14.88;;;;;;;;;;4979505;28;20502;-80
2023/05/22 03:37:01;;;;;;;21.10;13.70;;;;;;;;;;4980018;28;20066;-80
2023/05/22 03:39:26;;;;;;;25.45;14.20;;;;;;;;;;4989507;28;20035;-80
2023/05/22 03:41:51;;;;;;;25.67;14.25;;;;;;;;;;4980291;28;20054;-81
2023/05/22 03:44:17;;;;;;;22.13;14.15;;;;;;;;;;4980772;28;20035;-80
2023/05/22 03:46:42;;;;;;;19.73;12.82;;;;;;;;;;4978823;28;20050;-79
2023/05/22 03:49:08;;;;;;;15.35;10.80;;;;;;;;;;4979693;28;20022;-81
2023/05/22 03:51:33;;;;;;;11.98;8.98;;;;;;;;;;4979812;28;20039;-80
2023/05/22 03:53:58;;;;;;;16.80;9.00;;;;;;;;;;4978860;28;20023;-80
2023/05/22 03:56:24;;;;;;;12.20;8.52;;;;;;;;;;4978193;28;20035;-80
2023/05/22 03:58:49;;;;;;;15.35;8.80;;;;;;;;;;4978555;28;20035;-80
2023/05/22 04:01:15;;;;;;;14.18;7.80;;;;;;;;;;4979679;28;20031;-80
2023/05/22 04:03:41;;;;;;;14.82;7.93;;;;;;;;;;4975715;28;20022;-80
2023/05/22 04:06:06;;;;;;;11.35;7.30;;;;;;;;;;4981082;28;20023;-80
2023/05/22 04:08:32;;;;;;;15.93;7.38;;;;;;;;;;4980140;28;20039;-79
2023/05/22 04:10:57;;;;;;;10.05;7.43;;;;;;;;;;4979944;28;20038;-80
2023/05/22 04:13:22;;;;;;;10.68;7.75;;;;;;;;;;4979460;28;20143;-80
2023/05/22 04:15:48;;;;;;;8.77;6.15;;;;;;;;;;4979199;28;20077;-80
2023/05/22 04:18:14;;;;;;;10.68;6.95;;;;;;;;;;4978912;28;20082;-80
2023/05/22 04:20:41;;;;;;;14.05;7.65;;;;;;;;;;4979084;28;20019;-80
2023/05/22 04:23:06;;;;;;;9.20;6.88;;;;;;;;;;4966059;28;20110;-80
2023/05/22 04:25:33;;;;;;;11.25;7.13;;;;;;;;;;4978093;28;20069;-80
2023/05/22 04:28:01;;;;;;;9.02;6.70;;;;;;;;;;4979378;28;20530;-80
2023/05/22 04:30:27;;;;;;;14.07;6.80;;;;;;;;;;4979762;28;20115;-80
2023/05/22 04:32:52;;;;;;;11.85;6.25;;;;;;;;;;4977763;28;20533;-79
2023/05/22 04:35:18;;;;;;;9.18;5.95;;;;;;;;;;4977552;28;20659;-79
2023/05/22 04:37:45;;;;;;;8.55;6.05;;;;;;;;;;4976610;28;20058;-80
2023/05/22 04:40:11;;;;;;;6.90;5.95;;;;;;;;;;4977009;28;20042;-79
2023/05/22 04:42:41;;;;;;;9.38;6.00;;;;;;;;;;4977312;28;20031;-80
2023/05/22 04:45:07;;;;;;;8.20;5.60;;;;;;;;;;4978538;28;20496;-79
2023/05/22 04:47:32;;;;;;;10.02;5.50;;;;;;;;;;4978324;28;20553;-79
2023/05/22 04:49:58;;;;;;;6.53;5.35;;;;;;;;;;4977851;28;20069;-78
2023/05/22 04:52:27;;;;;;;7.72;5.45;;;;;;;;;;4976224;28;20034;-80
2023/05/22 04:54:53;;;;;;;6.55;4.53;;;;;;;;;;4976057;28;20033;-79
2023/05/22 04:57:20;;;;;;;6.53;5.55;;;;;;;;;;4976044;28;20077;-80
2023/05/22 04:59:46;;;;;;;7.75;5.70;;;;;;;;;;4977899;28;20031;-79
2023/05/22 05:02:12;;;;;;;8.13;5.90;;;;;;;;;;4976221;28;20033;-82
2023/05/22 05:04:37;;;;;;;8.68;5.57;;;;;;;;;;4975677;28;20039;-80
2023/05/22 05:07:03;;;;;;;6.63;5.43;;;;;;;;;;4977515;28;20042;-79
2023/05/22 05:09:29;;;;;;;7.63;6.05;;;;;;;;;;4993084;28;20165;-79
2023/05/22 05:11:54;;;;;;;10.55;6.22;;;;;;;;;;4976970;28;20034;-80
2023/05/22 05:14:20;;;;;;;10.00;5.57;;;;;;;;;;4976086;28;20117;-80
2023/05/22 05:16:46;;;;;;;6.05;5.38;;;;;;;;;;4976364;28;20053;-80
2023/05/22 05:19:11;;;;;;;7.18;5.15;;;;;;;;;;4975649;28;20035;-80
2023/05/22 05:21:38;;;;;;;6.97;5.25;;;;;;;;;;4977879;28;20034;-79
2023/05/22 05:24:03;;;;;;;8.40;5.65;;;;;;;;;;4977612;28;20026;-79
2023/05/22 05:26:29;;;;;;;9.45;6.35;;;;;;;;;;4976684;28;20080;-80
2023/05/22 05:28:55;;;;;;;8.23;5.70;;;;;;;;;;4977903;28;20035;-80
2023/05/22 05:31:21;;;;;;;7.22;5.50;;;;;;;;;;4977167;28;20082;-80
2023/05/22 05:33:47;;;;;;;5.80;5.15;;;;;;;;;;4976316;28;20035;-80
2023/05/22 05:36:13;;;;;;;7.15;5.53;;;;;;;;;;4977911;28;20050;-80
2023/05/22 05:38:38;;;;;;;6.22;5.20;;;;;;;;;;4978167;28;20043;-80
2023/05/22 05:41:03;;;;;;;10.70;5.30;;;;;;;;;;4978200;28;20130;-80
2023/05/22 05:43:29;;;;;;;7.40;4.80;;;;;;;;;;4976685;28;20035;-81
2023/05/22 05:45:54;;;;;;;7.78;5.22;;;;;;;;;;4976808;28;20038;-80
2023/05/22 05:48:19;;;;;;;9.55;5.35;;;;;;;;;;4992669;28;20022;-80
2023/05/22 05:50:45;;;;;;;6.50;5.25;;;;;;;;;;4977024;28;20095;-80
2023/05/22 05:53:10;;;;;;;6.00;4.75;;;;;;;;;;4975702;28;20406;-80
2023/05/22 05:55:35;;;;;;;6.88;5.03;;;;;;;;;;4977968;28;20493;-80
2023/05/22 05:58:01;;;;;;;9.25;5.53;;;;;;;;;;4967883;28;20038;-80
2023/05/22 06:00:27;;;;;;;10.80;4.80;;;;;;;;;;4978075;28;20453;-80
2023/05/22 06:02:52;;;;;;;8.43;5.13;;;;;;;;;;4977224;28;20102;-80
2023/05/22 06:05:18;;;;;;;5.85;4.90;;;;;;;;;;4977842;28;20035;-81
2023/05/22 06:07:44;;;;;;;9.63;4.80;;;;;;;;;;4978676;28;20457;-80
2023/05/22 06:10:12;;;;;;;7.05;4.82;;;;;;;;;;4992110;28;20070;-81
2023/05/22 06:12:37;;;;;;;5.88;4.90;;;;;;;;;;4977971;28;20034;-81
2023/05/22 06:15:04;;;;;;;7.50;4.90;;;;;;;;;;4992903;28;20034;-80
2023/05/22 06:17:30;;;;;;;7.07;4.68;;;;;;;;;;4978080;28;20023;-80
2023/05/22 06:19:55;;;;;;;6.45;5.22;;;;;;;;;;4977199;28;20045;-80
2023/05/22 06:22:20;;;;;;;8.90;4.90;;;;;;;;;;4977139;28;20031;-80
2023/05/22 06:24:46;;;;;;;11.02;5.07;;;;;;;;;;4981018;28;20069;-80
2023/05/22 06:27:11;;;;;;;8.90;5.22;;;;;;;;;;4984087;28;20033;-80
2023/05/22 06:29:36;;;;;;;10.73;5.10;;;;;;;;;;4977033;28;20489;-80
2023/05/22 06:32:02;;;;;;;9.20;4.82;;;;;;;;;;4976778;28;20115;-81
2023/05/22 06:34:28;;;;;;;7.20;5.25;;;;;;;;;;4977204;28;20047;-81
2023/05/22 06:36:53;;;;;;;5.75;5.03;;;;;;;;;;4975159;28;20096;-80
2023/05/22 06:39:20;;;;;;;9.93;4.95;;;;;;;;;;4977993;28;20071;-80
2023/05/22 06:41:45;;;;;;;7.57;5.43;;;;;;;;;;4977198;28;20034;-81
2023/05/22 06:44:11;;;;;;;8.02;5.03;;;;;;;;;;4977308;28;20027;-80
2023/05/22 06:46:37;;;;;;;8.65;5.28;;;;;;;;;;4984203;28;20393;-81
2023/05/22 06:49:02;;;;;;;8.38;5.60;;;;;;;;;;4979138;28;20037;-80
2023/05/22 06:51:28;;;;;;;9.60;5.10;;;;;;;;;;4981648;28;20089;-81
2023/05/22 06:53:53;;;;;;;5.97;5.10;;;;;;;;;;4976460;28;20102;-80
2023/05/22 06:56:18;;;;;;;4.85;4.40;;;;;;;;;;4977716;28;20077;-80
2023/05/22 06:58:44;;;;;;;5.15;4.65;;;;;;;;;;4976474;28;20034;-81
2023/05/22 07:01:09;;;;;;;7.32;4.85;;;;;;;;;;4976809;28;20122;-80
2023/05/22 07:03:34;;;;;;;9.27;4.80;;;;;;;;;;4975573;28;20062;-81
2023/05/22 07:06:01;;;;;;;8.43;5.00;;;;;;;;;;4976518;28;20355;-80
2023/05/22 07:08:26;;;;;;;11.38;5.03;;;;;;;;;;4976199;28;20041;-80
2023/05/22 07:10:51;;;;;;;8.77;4.90;;;;;;;;;;4976023;28;20063;-80
2023/05/22 07:13:17;;;;;;;6.95;4.78;;;;;;;;;;4991732;28;20031;-80
2023/05/22 07:15:42;;;;;;;7.20;4.80;;;;;;;;;;4975799;28;20063;-81
2023/05/22 07:18:09;;;;;;;6.88;5.20;;;;;;;;;;5004744;23;20044;-76
2023/05/22 07:20:34;;;;;;;5.40;4.63;;;;;;;;;;5009121;28;20021;-77
2023/05/22 07:22:59;;;;;;;9.95;4.72;;;;;;;;;;5008192;28;20040;-77
2023/05/22 07:25:25;;;;;;;7.78;4.30;;;;;;;;;;5011155;28;20121;-77
2023/05/22 07:27:50;;;;;;;5.03;4.47;;;;;;;;;;5004443;28;20050;-76
2023/05/22 07:30:16;;;;;;;10.85;5.07;;;;;;;;;;4988556;28;20026;-76
2023/05/22 07:32:41;;;;;;;8.48;4.82;;;;;;;;;;4991234;28;20029;-77
2023/05/22 07:35:07;;;;;;;6.45;4.80;;;;;;;;;;4987887;28;20027;-77
2023/05/22 07:37:32;;;;;;;5.53;4.60;;;;;;;;;;4988506;28;20034;-77
2023/05/22 07:39:57;;;;;;;5.38;4.60;;;;;;;;;;4980959;28;20034;-77
2023/05/22 07:42:24;;;;;;;8.55;5.30;;;;;;;;;;4985329;28;20514;-78
2023/05/22 07:44:50;;;;;;;5.50;4.65;;;;;;;;;;4988722;28;20452;-77
2023/05/22 07:47:15;;;;;;;6.45;4.55;;;;;;;;;;4983261;28;20389;-77
2023/05/22 07:49:41;;;;;;;6.47;4.40;;;;;;;;;;4990419;28;20053;-77
2023/05/22 07:52:06;;;;;;;4.85;4.13;;;;;;;;;;4992808;28;20556;-78
2023/05/22 07:54:31;;;;;;;8.57;4.30;;;;;;;;;;4992722;28;20049;-77
2023/05/22 07:56:57;;;;;;;6.78;4.78;;;;;;;;;;4984643;28;20051;-77
2023/05/22 07:59:24;;;;;;;9.25;4.43;;;;;;;;;;4989112;28;20035;-78
2023/05/22 08:01:49;;;;;;;6.10;4.97;;;;;;;;;;4984629;28;20058;-77
2023/05/22 08:04:14;;;;;;;5.03;4.43;;;;;;;;;;4984555;28;20038;-78
2023/05/22 08:06:40;;;;;;;5.65;4.90;;;;;;;;;;4992036;28;20389;-78
2023/05/22 08:09:05;;;;;;;7.38;4.50;;;;;;;;;;4974995;28;20027;-78
2023/05/22 08:11:31;;;;;;;10.18;4.60;;;;;;;;;;4987815;28;20141;-78
2023/05/22 08:13:56;;;;;;;5.55;4.75;;;;;;;;;;4995398;28;20042;-78
2023/05/22 08:16:21;;;;;;;5.05;4.55;;;;;;;;;;4976393;28;20035;-78
2023/05/22 08:18:47;;;;;;;12.18;4.53;;;;;;;;;;4995666;28;20058;-78
2023/05/22 08:21:13;;;;;;;6.50;4.53;;;;;;;;;;4980139;28;20089;-78
2023/05/22 08:23:38;;;;;;;6.43;4.78;;;;;;;;;;4989180;28;20037;-77
2023/05/22 08:26:05;;;;;;;7.15;4.57;;;;;;;;;;4986447;28;20114;-78
2023/05/22 08:28:30;;;;;;;5.32;4.68;;;;;;;;;;4990188;28;20038;-78
2023/05/22 08:30:55;;;;;;;4.82;4.43;;;;;;;;;;4980524;28;20094;-78
2023/05/22 08:33:21;;;;;;;5.90;4.63;;;;;;;;;;4996390;28;20026;-78
2023/05/22 08:35:46;;;;;;;8.20;4.93;;;;;;;;;;4988975;28;20023;-78
2023/05/22 08:38:11;;;;;;;5.82;4.80;;;;;;;;;;4987170;28;20034;-78
2023/05/22 08:40:38;;;;;;;7.85;4.57;;;;;;;;;;4996549;28;20030;-77
2023/05/22 08:43:05;;;;;;;6.55;4.82;;;;;;;;;;4994612;28;20504;-78
2023/05/22 08:45:32;;;;;;;12.45;4.88;;;;;;;;;;4994937;28;20079;-78
2023/05/22 08:47:58;;;;;;;6.13;4.97;;;;;;;;;;4977787;28;20030;-78
2023/05/22 08:50:25;;;;;;;7.80;4.97;;;;;;;;;;4979155;28;20543;-76
2023/05/22 08:52:53;;;;;;;6.35;5.00;;;;;;;;;;4986529;28;20474;-77
2023/05/22 08:55:18;;;;;;;8.30;4.72;;;;;;;;;;4989941;28;20110;-77
2023/05/22 08:57:48;;;;;;;5.03;4.53;;;;;;;;;;4974571;28;20063;-76
2023/05/22 09:00:15;;;;;;;6.10;4.70;;;;;;;;;;4988613;28;20026;-76
2023/05/22 09:02:41;;;;;;;6.90;4.68;;;;;;;;;;4989196;28;20167;-77
2023/05/22 09:05:08;;;;;;;5.35;4.80;;;;;;;;;;4994055;28;20436;-77
2023/05/22 09:07:33;;;;;;;11.07;5.25;;;;;;;;;;4983375;28;20053;-77
2023/05/22 09:10:00;;;;;;;5.57;5.00;;;;;;;;;;4977189;28;20042;-77
2023/05/22 09:12:28;;;;;;;5.43;4.50;;;;;;;;;;4986546;28;20030;-77
2023/05/22 09:14:54;;;;;;;6.90;4.90;;;;;;;;;;4994476;28;20120;-77
2023/05/22 09:17:20;;;;;;;6.63;4.90;;;;;;;;;;4982058;28;20176;-77
2023/05/22 09:19:45;;;;;;;8.93;4.95;;;;;;;;;;4986825;28;20133;-77
2023/05/22 09:22:12;;;;;;;7.18;5.43;;;;;;;;;;4982381;28;20039;-77
2023/05/22 09:24:41;;;;;;;7.82;4.70;;;;;;;;;;4988107;28;20074;-77
2023/05/22 09:27:07;;;;;;;6.60;5.15;;;;;;;;;;4983433;28;20090;-77
2023/05/22 09:29:52;;;;;;;7.50;5.38;;;;;;;;;;4979490;28;20109;-77
2023/05/22 09:32:18;;;;;;;10.85;5.85;;;;;;;;;;4993542;28;20035;-77
2023/05/22 09:34:45;;;;;;;7.82;5.20;;;;;;;;;;4993612;28;20030;-77
2023/05/22 09:37:11;;;;;;;8.27;5.60;;;;;;;;;;5008454;28;20102;-77
2023/05/22 09:39:42;;;;;;;9.45;4.95;;;;;;;;;;4980044;28;20612;-76
2023/05/22 09:42:10;;;;;;;6.57;4.90;;;;;;;;;;4989937;28;20025;-77
2023/05/22 09:44:36;;;;;;;6.10;4.72;;;;;;;;;;4982870;28;20027;-77
2023/05/22 09:47:02;;;;;;;8.07;5.32;;;;;;;;;;4982277;28;20045;-77
2023/05/22 09:49:27;;;;;;;9.88;5.72;;;;;;;;;;4989333;28;20138;-77
2023/05/22 09:51:53;;;;;;;11.43;5.82;;;;;;;;;;4988987;28;20061;-77
2023/05/22 09:54:19;;;;;;;8.30;5.13;;;;;;;;;;4984862;28;20112;-77
2023/05/22 09:56:48;;;;;;;5.80;4.93;;;;;;;;;;4993574;28;20049;-77
2023/05/22 09:59:20;;;;;;;21.55;5.07;;;;;;;;;;4982821;28;20046;-77
2023/05/22 10:01:47;;;;;;;6.90;5.88;;;;;;;;;;4992848;28;20038;-77
2023/05/22 10:04:15;;;;;;;9.35;5.80;;;;;;;;;;4990774;28;20504;-77
2023/05/22 10:06:42;;;;;;;7.00;5.28;;;;;;;;;;4972550;28;20039;-77
2023/05/22 10:09:12;;;;;;;10.10;5.65;;;;;;;;;;4981577;28;20037;-77
2023/05/22 10:11:37;;;;;;;5.97;5.35;;;;;;;;;;4987181;28;20026;-77
2023/05/22 10:14:03;;;;;;;6.32;5.63;;;;;;;;;;5007599;28;20578;-77
2023/05/22 10:16:29;;;;;;;8.68;6.05;;;;;;;;;;4992501;28;20030;-77
2023/05/22 10:18:55;;;;;;;7.88;5.88;;;;;;;;;;4989049;28;20122;-77
2023/05/22 10:21:21;;;;;;;6.80;5.57;;;;;;;;;;4973838;28;20041;-77
2023/05/22 10:23:48;;;;;;;12.07;5.40;;;;;;;;;;4974287;28;20035;-77
2023/05/22 10:26:15;;;;;;;7.82;5.15;;;;;;;;;;4988983;28;20386;-77
2023/05/22 10:28:44;;;;;;;10.52;5.90;;;;;;;;;;4973357;28;20041;-77
2023/05/22 10:31:31;;;;;;;6.25;5.45;;;;;;;;;;4973191;28;20035;-77
2023/05/22 10:34:00;;;;;;;11.10;6.07;;;;;;;;;;4986907;28;20034;-77
2023/05/22 10:36:38;;;;;;;11.75;6.50;;;;;;;;;;4985006;28;20042;-77
2023/05/22 10:39:25;;;;;;;7.07;6.00;;;;;;;;;;4984025;28;20403;-77
2023/05/22 10:41:50;;;;;;;8.43;6.18;;;;;;;;;;4986442;28;20073;-77
2023/05/22 10:44:16;;;;;;;12.55;6.18;;;;;;;;;;4991286;28;20030;-79
2023/05/22 10:46:47;;;;;;;9.30;6.00;;;;;;;;;;4989807;28;20404;-79
2023/05/22 10:49:21;;;;;;;6.38;5.68;;;;;;;;;;4990019;28;20042;-77
2023/05/22 10:51:46;;;;;;;15.68;6.32;;;;;;;;;;4987227;28;20452;-77
2023/05/22 10:54:11;;;;;;;15.57;6.13;;;;;;;;;;4991072;28;20072;-78
2023/05/22 10:56:37;;;;;;;8.77;6.10;;;;;;;;;;4981102;28;20030;-77
2023/05/22 10:59:04;;;;;;;9.90;6.40;;;;;;;;;;4980575;28;20409;-78
2023/05/22 11:01:34;;;;;;;7.22;6.05;;;;;;;;;;4972727;28;20050;-77
2023/05/22 11:04:12;;;;;;;8.82;6.15;;;;;;;;;;4989056;28;20424;-77
2023/05/22 11:06:46;;;;;;;13.80;6.00;;;;;;;;;;4985928;28;20149;-78
2023/05/22 11:09:40;;;;;;;10.60;6.18;;;;;;;;;;4982957;28;20190;-77
2023/05/22 11:12:22;;;;;;;9.38;6.50;;;;;;;;;;4985085;28;20054;-77
2023/05/22 11:14:54;;;;;;;8.18;5.75;;;;;;;;;;4973593;28;20027;-78
2023/05/22 11:17:30;;;;;;;7.40;6.32;;;;;;;;;;4973089;28;20035;-77
2023/05/22 11:20:10;;;;;;;20.65;7.63;;;;;;;;;;4976816;28;20043;-78
2023/05/22 11:22:39;;;;;;;23.17;7.10;;;;;;;;;;4981053;28;20023;-78
2023/05/22 11:25:16;;;;;;;12.45;6.80;;;;;;;;;;4987082;28;20030;-77
2023/05/22 11:27:42;;;;;;;10.90;6.70;;;;;;;;;;4977464;28;20092;-77
2023/05/22 11:30:08;;;;;;;10.45;6.43;;;;;;;;;;4984702;28;20023;-77
2023/05/22 11:32:35;;;;;;;11.30;6.53;;;;;;;;;;4983312;28;20502;-78
2023/05/22 11:35:00;;;;;;;23.67;6.93;;;;;;;;;;4993312;28;20034;-78
2023/05/22 11:37:26;;;;;;;9.82;6.95;;;;;;;;;;4982194;28;20037;-77
2023/05/22 11:39:56;;;;;;;12.88;6.03;;;;;;;;;;4978954;28;20034;-77
2023/05/22 11:42:21;;;;;;;7.50;6.68;;;;;;;;;;4989678;28;20030;-77
2023/05/22 11:44:47;;;;;;;7.00;6.30;;;;;;;;;;4982169;28;20031;-78
2023/05/22 11:47:13;;;;;;;11.60;6.78;;;;;;;;;;4974299;28;20700;-77
2023/05/22 11:49:41;;;;;;;12.25;6.30;;;;;;;;;;4993806;28;20049;-78
2023/05/22 11:52:06;;;;;;;12.52;6.18;;;;;;;;;;4987033;28;20133;-78
2023/05/22 11:54:32;;;;;;;7.43;5.90;;;;;;;;;;4980285;28;20496;-78
2023/05/22 11:56:57;;;;;;;12.95;6.25;;;;;;;;;;4980527;28;20019;-78
2023/05/22 11:59:22;;;;;;;19.80;6.85;;;;;;;;;;4983080;28;20170;-78
2023/05/22 12:01:49;;;;;;;9.40;6.57;;;;;;;;;;4980429;28;20023;-78
2023/05/22 12:04:14;;;;;;;7.97;5.90;;;;;;;;;;4994182;28;20064;-78
2023/05/22 12:06:40;;;;;;;11.57;5.63;;;;;;;;;;4994906;28;20038;-78
2023/05/22 12:09:06;;;;;;;7.93;6.10;;;;;;;;;;4993886;28;20464;-78
2023/05/22 12:11:34;;;;;;;8.73;5.22;;;;;;;;;;4994899;28;20025;-78
2023/05/22 12:14:00;;;;;;;8.65;5.78;;;;;;;;;;4996435;28;20428;-78
2023/05/22 12:16:26;;;;;;;12.77;5.38;;;;;;;;;;4995216;28;20034;-78
2023/05/22 12:18:54;;;;;;;9.60;5.55;;;;;;;;;;4991847;28;20110;-77
2023/05/22 12:21:21;;;;;;;9.77;5.57;;;;;;;;;;4988661;28;20477;-78
2023/05/22 12:23:50;;;;;;;7.35;5.22;;;;;;;;;;4997095;28;20485;-78
2023/05/22 12:26:16;;;;;;;6.70;5.35;;;;;;;;;;4988166;28;20092;-78
2023/05/22 12:28:41;;;;;;;7.75;5.50;;;;;;;;;;4996473;28;20038;-78
2023/05/22 12:31:07;;;;;;;6.93;5.32;;;;;;;;;;4988943;28;20038;-78
2023/05/22 12:33:32;;;;;;;6.88;4.72;;;;;;;;;;4995293;28;20495;-78
2023/05/22 12:35:58;;;;;;;13.35;5.32;;;;;;;;;;4997108;28;20027;-78
2023/05/22 12:38:28;;;;;;;6.85;5.25;;;;;;;;;;4996150;28;20042;-78
2023/05/22 12:40:54;;;;;;;7.53;5.10;;;;;;;;;;4988217;28;20041;-78
2023/05/22 12:43:22;;;;;;;8.82;5.28;;;;;;;;;;4995707;28;20396;-78
2023/05/22 12:45:47;;;;;;;6.32;4.97;;;;;;;;;;4990399;28;20037;-78
2023/05/22 12:48:13;;;;;;;7.13;5.00;;;;;;;;;;4979312;28;20026;-78
2023/05/22 12:50:39;;;;;;;10.73;5.75;;;;;;;;;;4995768;28;20019;-78
2023/05/22 12:53:04;;;;;;;8.15;6.00;;;;;;;;;;4988058;28;20041;-78
2023/05/22 12:55:30;;;;;;;20.35;5.95;;;;;;;;;;4995084;28;20022;-77
2023/05/22 12:57:55;;;;;;;6.10;5.03;;;;;;;;;;4987701;28;20073;-78
2023/05/22 13:00:21;;;;;;;7.90;5.50;;;;;;;;;;4983805;28;20042;-77
2023/05/22 13:02:47;;;;;;;17.05;5.55;;;;;;;;;;4988486;28;20030;-77
2023/05/22 13:05:12;;;;;;;17.77;5.93;;;;;;;;;;4975739;28;20409;-77
2023/05/22 13:07:37;;;;;;;11.15;4.93;;;;;;;;;;4993586;28;20420;-77
2023/05/22 13:10:03;;;;;;;5.75;5.07;;;;;;;;;;4994362;28;20069;-78
2023/05/22 13:12:31;;;;;;;5.38;4.70;;;;;;;;;;4981837;28;20044;-77
2023/05/22 13:14:59;;;;;;;10.52;5.00;;;;;;;;;;4989438;28;20077;-78
2023/05/22 13:17:25;;;;;;;13.63;5.53;;;;;;;;;;4975647;28;20043;-77
2023/05/22 13:19:50;;;;;;;8.00;5.13;;;;;;;;;;4982260;28;20045;-77
2023/05/22 13:22:17;;;;;;;5.40;4.90;;;;;;;;;;4982510;28;20577;-77
2023/05/22 13:24:42;;;;;;;8.80;5.03;;;;;;;;;;4993663;28;20033;-77
2023/05/22 13:27:07;;;;;;;6.78;4.88;;;;;;;;;;4992205;28;20022;-77
2023/05/22 13:29:33;;;;;;;8.75;5.55;;;;;;;;;;4992186;28;20022;-77
2023/05/22 13:31:59;;;;;;;9.90;5.45;;;;;;;;;;4985285;28;20084;-77
2023/05/22 13:34:24;;;;;;;9.60;4.88;;;;;;;;;;4983261;28;20026;-77
2023/05/22 13:36:49;;;;;;;10.93;5.10;;;;;;;;;;4985729;28;20277;-77
2023/05/22 13:39:15;;;;;;;6.78;4.90;;;;;;;;;;4985932;28;20030;-77
2023/05/22 13:41:40;;;;;;;8.23;5.00;;;;;;;;;;4984476;28;20030;-77
2023/05/22 13:44:06;;;;;;;8.50;5.15;;;;;;;;;;4984142;28;20030;-78
2023/05/22 13:46:31;;;;;;;12.60;4.88;;;;;;;;;;4982546;28;20035;-77
2023/05/22 13:48:58;;;;;;;8.43;5.60;;;;;;;;;;4991424;28;20034;-77
2023/05/22 13:51:23;;;;;;;7.47;5.20;;;;;;;;;;4983606;28;20038;-77
2023/05/22 13:53:48;;;;;;;7.65;5.20;;;;;;;;;;4987551;28;20110;-77
2023/05/22 13:56:13;;;;;;;5.22;4.72;;;;;;;;;;4985426;28;20373;-77
2023/05/22 13:58:39;;;;;;;8.48;5.03;;;;;;;;;;4985153;28;20030;-77
2023/05/22 14:01:04;;;;;;;8.27;5.40;;;;;;;;;;4993286;28;20125;-78
2023/05/22 14:03:30;;;;;;;7.45;4.88;;;;;;;;;;5006403;28;20041;-77
2023/05/22 14:05:55;;;;;;;8.35;5.43;;;;;;;;;;4988280;28;20046;-77
2023/05/22 14:08:20;;;;;;;5.72;5.22;;;;;;;;;;4993722;28;20133;-77
2023/05/22 14:10:46;;;;;;;5.95;4.70;;;;;;;;;;4988840;28;20030;-76
2023/05/22 14:13:11;;;;;;;6.57;4.70;;;;;;;;;;4975832;28;20041;-77
2023/05/22 14:15:36;;;;;;;8.60;5.20;;;;;;;;;;5008737;28;20031;-77
2023/05/22 14:18:02;;;;;;;6.68;4.78;;;;;;;;;;4983310;28;20049;-77
2023/05/22 14:20:27;;;;;;;7.65;5.22;;;;;;;;;;4989524;28;20044;-77
2023/05/22 14:22:52;;;;;;;14.43;5.53;;;;;;;;;;4983730;28;20106;-77
2023/05/22 14:25:17;;;;;;;7.82;5.53;;;;;;;;;;4992523;28;20030;-77
2023/05/22 14:27:43;;;;;;;10.85;5.95;;;;;;;;;;4980961;28;20058;-77
2023/05/22 14:30:12;;;;;;;7.93;5.60;;;;;;;;;;4988514;28;20045;-77
2023/05/22 14:32:40;;;;;;;6.63;5.20;;;;;;;;;;4989402;28;20023;-77